Time;durP1;ratioP1;P1;durP2;ratioP2;P2;SDS_P1;SDS_P2;PMS_P1;PMS_P2;Temp;Humidity;BMP_temperature;BMP_pressure;BME280_temperature;BME280_humidity;BME280_pressure;Samples;Min_cycle;Max_cycle;Signal;HPM_P1;HPM_P2
2020/12/05 00:01:43;;;;;;;24.08;18.75;;;4.20;99.90;;;;;;4979499;28;20229;-84
2020/12/05 00:04:17;;;;;;;22.85;17.10;;;4.20;99.90;;;;;;4980049;28;20217;-84
2020/12/05 00:13:31;;;;;;;19.00;17.08;;;4.40;99.90;;;;;;4807845;29;20692;-84
2020/12/05 00:22:15;;;;;;;21.73;17.17;;;3.90;99.90;;;;;;4806174;29;20245;-84
2020/12/05 00:52:30;;;;;;;23.67;16.42;;;4.20;99.90;;;;;;4772090;30;20771;-83
2020/12/05 01:14:12;;;;;;;24.83;18.97;;;3.90;99.90;;;;;;4745126;29;20196;-82
2020/12/05 01:16:40;;;;;;;25.30;18.50;;;3.00;99.90;;;;;;4881666;29;20215;-82
2020/12/05 01:19:06;;;;;;;25.05;20.00;;;5.20;99.90;;;;;;4949738;28;20234;-82
2020/12/05 01:21:32;;;;;;;23.02;18.13;;;3.70;99.90;;;;;;4978454;28;20244;-82
2020/12/05 01:23:59;;;;;;;27.63;18.23;;;4.00;99.90;;;;;;4978418;28;20217;-82
2020/12/05 01:26:25;;;;;;;25.30;18.98;;;4.00;99.90;;;;;;4978212;28;20573;-82
2020/12/05 01:28:51;;;;;;;23.98;17.35;;;4.10;99.90;;;;;;4978263;28;20208;-83
2020/12/05 01:31:18;;;;;;;21.75;18.85;;;4.00;99.90;;;;;;4978594;28;20233;-83
2020/12/05 01:33:44;;;;;;;28.58;20.23;;;4.10;99.90;;;;;;4978220;28;20219;-82
2020/12/05 01:36:11;;;;;;;23.17;19.67;;;4.10;99.90;;;;;;4977890;28;20214;-83
2020/12/05 01:38:37;;;;;;;23.58;19.27;;;4.10;99.90;;;;;;4978072;28;20236;-82
2020/12/05 01:41:04;;;;;;;21.83;19.52;;;4.10;99.90;;;;;;4978458;28;20220;-82
2020/12/05 01:43:32;;;;;;;19.20;16.80;;;4.10;99.90;;;;;;4977488;28;20306;-82
2020/12/05 01:45:59;;;;;;;26.35;17.85;;;3.70;99.90;;;;;;4977361;28;20220;-82
2020/12/05 01:48:27;;;;;;;20.70;17.30;;;4.10;99.90;;;;;;4977814;28;20205;-82
2020/12/05 01:50:55;;;;;;;23.65;18.55;;;4.00;99.90;;;;;;4977628;28;20213;-82
2020/12/05 01:53:22;;;;;;;21.55;14.95;;;4.10;99.90;;;;;;4976887;28;20239;-82
2020/12/05 01:55:49;;;;;;;21.80;16.30;;;4.10;99.90;;;;;;4976843;28;20576;-82
2020/12/05 01:58:16;;;;;;;20.63;16.50;;;4.10;99.90;;;;;;4976039;28;20324;-82
2020/12/05 02:00:44;;;;;;;20.00;16.05;;;4.10;99.90;;;;;;4976238;28;20221;-81
2020/12/05 02:03:12;;;;;;;21.05;17.33;;;4.20;99.90;;;;;;4975439;28;20241;-81
2020/12/05 02:05:55;;;;;;;17.60;15.73;;;4.20;99.90;;;;;;4975787;28;20210;-81
2020/12/05 02:08:28;;;;;;;20.35;15.55;;;4.20;99.90;;;;;;4975701;28;20213;-81
2020/12/05 02:10:55;;;;;;;20.00;15.80;;;5.60;99.90;;;;;;4975582;28;20632;-81
2020/12/05 02:13:26;;;;;;;19.73;15.63;;;4.20;99.90;;;;;;4975325;28;20583;-81
2020/12/05 02:15:53;;;;;;;19.08;16.10;;;4.00;99.90;;;;;;4975305;28;20881;-81
2020/12/05 02:18:20;;;;;;;20.40;18.20;;;3.70;99.90;;;;;;4975894;28;20236;-81
2020/12/05 02:20:49;;;;;;;23.30;18.33;;;3.80;99.90;;;;;;4976031;28;20208;-81
2020/12/05 02:23:18;;;;;;;21.08;18.58;;;3.80;99.90;;;;;;4975912;28;20225;-81
2020/12/05 02:25:46;;;;;;;20.95;16.90;;;3.80;99.90;;;;;;4977109;28;20213;-82
2020/12/05 02:28:16;;;;;;;20.10;16.75;;;3.70;99.90;;;;;;4977049;28;20212;-82
2020/12/05 02:30:42;;;;;;;22.73;17.30;;;3.80;99.90;;;;;;4977186;28;20687;-82
2020/12/05 02:33:08;;;;;;;22.42;15.02;;;3.70;99.90;;;;;;4977100;28;20630;-82
2020/12/05 02:35:35;;;;;;;23.48;16.50;;;3.70;99.90;;;;;;4976744;28;20215;-81
2020/12/05 02:38:07;;;;;;;19.15;16.25;;;3.60;99.90;;;;;;4976857;28;20228;-81
2020/12/05 02:40:35;;;;;;;19.42;17.33;;;3.50;99.90;;;;;;4977220;28;20222;-81
2020/12/05 02:43:02;;;;;;;18.83;15.18;;;3.40;99.90;;;;;;4976147;28;20237;-81
2020/12/05 02:45:28;;;;;;;16.10;13.52;;;3.30;99.90;;;;;;4976226;28;20205;-81
2020/12/05 02:47:55;;;;;;;16.40;14.80;;;3.40;99.90;;;;;;4975996;28;20206;-80
2020/12/05 02:50:21;;;;;;;18.67;13.60;;;3.40;99.90;;;;;;4975849;28;20221;-80
2020/12/05 02:52:47;;;;;;;18.75;15.10;;;3.30;99.90;;;;;;4974706;28;20233;-80
2020/12/05 02:55:14;;;;;;;18.90;15.27;;;3.30;99.90;;;;;;4975092;28;20212;-80
2020/12/05 02:57:41;;;;;;;23.85;16.88;;;3.30;99.90;;;;;;4975099;28;20232;-80
2020/12/05 03:00:07;;;;;;;22.77;16.77;;;3.30;99.90;;;;;;4976210;28;20237;-80
2020/12/05 03:02:33;;;;;;;24.95;18.02;;;3.30;99.90;;;;;;4976780;28;20414;-80
2020/12/05 03:04:59;;;;;;;15.18;13.50;;;3.30;99.90;;;;;;4976632;28;20718;-80
2020/12/05 03:07:25;;;;;;;15.57;13.95;;;3.20;99.90;;;;;;4976636;28;20210;-79
2020/12/05 03:09:52;;;;;;;16.75;13.00;;;3.20;99.90;;;;;;4975413;28;20237;-79
2020/12/05 03:12:18;;;;;;;19.92;15.27;;;3.20;99.90;;;;;;4975443;28;20233;-79
2020/12/05 03:14:45;;;;;;;17.52;14.65;;;3.20;99.90;;;;;;4975024;28;20295;-79
2020/12/05 03:17:12;;;;;;;20.17;14.90;;;3.10;99.90;;;;;;4974972;28;20224;-79
2020/12/05 03:19:38;;;;;;;15.93;13.82;;;3.10;99.90;;;;;;4974082;28;20247;-79
2020/12/05 03:22:04;;;;;;;17.48;13.20;;;3.20;99.90;;;;;;4973882;28;20233;-79
2020/12/05 03:24:30;;;;;;;16.13;12.98;;;3.10;99.90;;;;;;4975139;28;20717;-79
2020/12/05 03:26:57;;;;;;;19.75;13.38;;;3.00;99.90;;;;;;4976096;28;20209;-79
2020/12/05 03:29:23;;;;;;;17.17;13.55;;;3.00;99.90;;;;;;4978853;28;20200;-79
2020/12/05 03:31:54;;;;;;;17.60;15.55;;;3.00;99.90;;;;;;4977827;28;20241;-79
2020/12/05 03:34:21;;;;;;;20.20;13.45;;;3.00;99.90;;;;;;4978645;28;20597;-79
2020/12/05 03:36:47;;;;;;;16.42;11.77;;;3.10;99.90;;;;;;4978207;28;20208;-79
2020/12/05 03:39:13;;;;;;;17.75;13.73;;;3.10;99.90;;;;;;4977808;28;20228;-79
2020/12/05 03:41:40;;;;;;;18.63;12.63;;;3.00;99.90;;;;;;4977522;28;20235;-79
2020/12/05 03:44:06;;;;;;;16.30;13.68;;;3.00;99.90;;;;;;4977793;28;20225;-79
2020/12/05 03:46:32;;;;;;;17.00;12.80;;;3.10;99.90;;;;;;4977721;28;20558;-79
2020/12/05 03:48:59;;;;;;;13.73;11.80;;;3.10;99.90;;;;;;4977921;28;20216;-79
2020/12/05 03:51:26;;;;;;;14.70;12.32;;;3.10;99.90;;;;;;4977476;28;20240;-79
2020/12/05 03:53:52;;;;;;;13.65;12.25;;;3.10;99.90;;;;;;4977503;28;20210;-79
2020/12/05 03:56:19;;;;;;;13.98;11.70;;;3.20;99.90;;;;;;4977823;28;20204;-80
2020/12/05 03:58:45;;;;;;;12.50;10.80;;;3.20;99.90;;;;;;4977518;28;20232;-80
2020/12/05 04:01:11;;;;;;;14.50;12.07;;;3.20;99.90;;;;;;4977458;28;20212;-80
2020/12/05 04:03:38;;;;;;;12.15;10.63;;;3.20;99.90;;;;;;4977874;28;20209;-80
2020/12/05 04:06:05;;;;;;;13.63;10.90;;;3.30;99.90;;;;;;4988285;28;20289;-79
2020/12/05 04:08:31;;;;;;;16.90;12.05;;;3.30;99.90;;;;;;4992192;28;20220;-79
2020/12/05 04:10:58;;;;;;;14.52;12.20;;;3.30;99.90;;;;;;4979966;28;20214;-80
2020/12/05 04:13:24;;;;;;;18.33;13.82;;;3.30;99.90;;;;;;4977984;28;20255;-80
2020/12/05 04:15:50;;;;;;;13.95;11.73;;;3.30;99.90;;;;;;4978172;28;20691;-80
2020/12/05 04:18:16;;;;;;;13.20;11.80;;;3.30;99.90;;;;;;4978013;28;20599;-80
2020/12/05 04:20:43;;;;;;;11.55;10.38;;;3.30;99.90;;;;;;4978111;28;20205;-80
2020/12/05 04:23:10;;;;;;;15.95;11.20;;;3.30;99.90;;;;;;4977512;28;20226;-80
2020/12/05 04:25:36;;;;;;;14.63;11.00;;;3.30;99.90;;;;;;4977729;28;20218;-81
2020/12/05 04:28:02;;;;;;;13.45;12.07;;;3.40;99.90;;;;;;4977678;28;20200;-80
2020/12/05 04:30:28;;;;;;;17.75;13.95;;;3.40;99.90;;;;;;4977146;28;20571;-81
2020/12/05 04:32:55;;;;;;;19.20;12.52;;;3.40;99.90;;;;;;4976510;28;20229;-81
2020/12/05 04:35:21;;;;;;;13.80;11.32;;;3.50;99.90;;;;;;4977268;28;20212;-81
2020/12/05 04:37:47;;;;;;;15.32;12.23;;;3.50;99.90;;;;;;4977054;28;20208;-81
2020/12/05 04:40:14;;;;;;;12.48;10.98;;;3.50;99.90;;;;;;4976577;28;20213;-80
2020/12/05 04:42:45;;;;;;;14.30;11.18;;;3.50;99.90;;;;;;4976602;28;20230;-81
2020/12/05 04:45:11;;;;;;;11.13;10.02;;;3.50;99.90;;;;;;4976960;28;20209;-81
2020/12/05 04:47:39;;;;;;;12.80;11.50;;;3.50;99.90;;;;;;4977103;28;20213;-80
2020/12/05 04:50:06;;;;;;;10.82;9.68;;;3.60;99.90;;;;;;4976782;28;20612;-80
2020/12/05 04:52:42;;;;;;;11.57;9.55;;;3.60;99.90;;;;;;4976185;28;20234;-80
2020/12/05 04:55:09;;;;;;;11.85;10.60;;;3.50;99.90;;;;;;4979134;28;20213;-80
2020/12/05 04:57:47;;;;;;;11.48;10.38;;;3.50;99.90;;;;;;4982229;28;20216;-81
2020/12/05 05:00:14;;;;;;;11.70;10.60;;;3.50;99.90;;;;;;4982242;28;20213;-80
2020/12/05 05:02:43;;;;;;;14.93;11.82;;;3.50;99.90;;;;;;4982142;28;20603;-80
2020/12/05 05:05:11;;;;;;;13.27;10.95;;;3.50;99.90;;;;;;4982029;28;20242;-81
2020/12/05 05:07:47;;;;;;;12.23;10.93;;;3.50;99.90;;;;;;4981936;28;20211;-80
2020/12/05 05:10:23;;;;;;;12.50;10.18;;;3.50;99.90;;;;;;4982260;28;20189;-80
2020/12/05 05:12:51;;;;;;;15.95;10.38;;;3.50;99.90;;;;;;4981581;28;20719;-80
2020/12/05 05:15:28;;;;;;;12.00;10.80;;;3.40;99.90;;;;;;4982488;28;20717;-80
2020/12/05 05:17:56;;;;;;;14.10;11.32;;;3.40;99.90;;;;;;4981318;28;20592;-80
2020/12/05 05:20:22;;;;;;;12.63;11.00;;;3.40;99.90;;;;;;4982153;28;20587;-80
2020/12/05 05:22:50;;;;;;;13.77;11.20;;;3.30;99.90;;;;;;4982092;28;20235;-80
2020/12/05 05:25:17;;;;;;;11.50;10.20;;;3.40;99.90;;;;;;4981935;28;20219;-80
2020/12/05 05:27:58;;;;;;;11.82;10.27;;;3.30;99.90;;;;;;4982239;28;20214;-80
2020/12/05 05:30:24;;;;;;;13.27;10.40;;;3.30;99.90;;;;;;4981814;28;20220;-80
2020/12/05 05:32:53;;;;;;;14.00;10.32;;;3.30;99.90;;;;;;4981798;28;20244;-81
2020/12/05 05:35:19;;;;;;;12.30;11.13;;;3.30;99.90;;;;;;4981963;28;20215;-80
2020/12/05 05:37:45;;;;;;;12.90;11.70;;;3.30;99.90;;;;;;4980724;28;20209;-80
2020/12/05 05:40:13;;;;;;;10.55;9.55;;;3.30;99.90;;;;;;4981333;28;20280;-80
2020/12/05 05:42:43;;;;;;;16.13;11.48;;;3.30;99.90;;;;;;4981286;28;20259;-80
2020/12/05 05:45:17;;;;;;;11.48;10.07;;;3.30;99.90;;;;;;4981283;28;20233;-80
2020/12/05 05:47:44;;;;;;;10.95;9.18;;;3.30;99.90;;;;;;4981433;28;20580;-80
2020/12/05 05:50:25;;;;;;;10.95;9.80;;;3.20;99.90;;;;;;4980569;28;20212;-80
2020/12/05 05:52:58;;;;;;;11.07;9.50;;;3.20;99.90;;;;;;4981422;28;20240;-80
2020/12/05 05:55:46;;;;;;;9.95;9.13;;;3.20;99.90;;;;;;4981013;28;20209;-80
2020/12/05 05:58:13;;;;;;;10.73;9.15;;;3.30;99.90;;;;;;4980775;28;20264;-80
2020/12/05 06:00:43;;;;;;;12.48;8.43;;;3.30;99.90;;;;;;4980458;28;20227;-80
2020/12/05 06:03:21;;;;;;;13.75;10.10;;;3.30;99.90;;;;;;4980499;28;20228;-80
2020/12/05 06:05:49;;;;;;;11.02;9.00;;;3.30;99.90;;;;;;4981228;28;20189;-80
2020/12/05 06:08:20;;;;;;;10.40;8.48;;;3.30;99.90;;;;;;4980462;28;20230;-80
2020/12/05 06:10:55;;;;;;;9.95;8.95;;;3.20;99.90;;;;;;4980966;28;20683;-80
2020/12/05 06:13:25;;;;;;;10.88;8.95;;;3.30;99.90;;;;;;4980893;28;20229;-80
2020/12/05 06:15:55;;;;;;;9.63;8.57;;;3.30;99.90;;;;;;4980584;28;20208;-80
2020/12/05 06:18:22;;;;;;;8.88;7.97;;;3.30;99.90;;;;;;4981115;28;20209;-81
2020/12/05 06:20:49;;;;;;;9.15;8.20;;;3.30;99.90;;;;;;4981183;28;20208;-80
2020/12/05 06:23:28;;;;;;;12.15;8.68;;;3.30;99.90;;;;;;4980836;28;20229;-80
2020/12/05 06:25:56;;;;;;;10.00;7.10;;;3.30;99.90;;;;;;4980716;28;20523;-81
2020/12/05 06:28:23;;;;;;;10.55;7.65;;;3.30;99.90;;;;;;4980929;28;20725;-80
2020/12/05 06:30:52;;;;;;;8.07;6.97;;;3.30;99.90;;;;;;4980816;28;20667;-80
2020/12/05 06:33:37;;;;;;;7.43;6.65;;;3.30;99.90;;;;;;4980694;28;20232;-81
2020/12/05 06:36:38;;;;;;;6.82;6.18;;;3.30;99.90;;;;;;4980613;28;20205;-80
2020/12/05 06:39:18;;;;;;;7.20;6.20;;;3.30;99.90;;;;;;4980923;28;20241;-80
2020/12/05 06:41:47;;;;;;;8.80;6.85;;;3.40;99.90;;;;;;4980468;28;20315;-80
2020/12/05 06:44:16;;;;;;;6.90;6.20;;;3.30;99.90;;;;;;4981045;28;20574;-80
2020/12/05 06:46:52;;;;;;;7.22;6.68;;;3.30;99.90;;;;;;4980483;28;20213;-80
2020/12/05 06:49:48;;;;;;;8.00;7.20;;;3.30;99.90;;;;;;4980543;28;20229;-80
2020/12/05 06:52:34;;;;;;;6.68;5.22;;;3.30;99.90;;;;;;4980011;28;20229;-80
2020/12/05 06:55:03;;;;;;;8.30;7.13;;;3.30;99.90;;;;;;4980896;28;20210;-80
2020/12/05 06:57:31;;;;;;;5.80;5.40;;;3.30;99.90;;;;;;4980589;28;20225;-80
2020/12/05 07:00:19;;;;;;;9.23;7.07;;;3.30;99.90;;;;;;4980294;28;20702;-80
2020/12/05 07:02:57;;;;;;;6.10;5.50;;;3.30;99.90;;;;;;4982809;28;20255;-80
2020/12/05 07:05:36;;;;;;;7.13;6.43;;;3.20;99.90;;;;;;4983801;28;20556;-80
2020/12/05 07:08:18;;;;;;;7.07;5.57;;;3.20;99.90;;;;;;4984178;28;20236;-80
2020/12/05 07:10:46;;;;;;;6.32;5.60;;;3.30;99.90;;;;;;4984131;28;20608;-80
2020/12/05 07:13:14;;;;;;;7.50;6.22;;;3.30;99.90;;;;;;4983985;28;20230;-80
2020/12/05 07:15:40;;;;;;;6.53;5.93;;;3.30;99.90;;;;;;4984346;28;20205;-80
2020/12/05 07:18:09;;;;;;;6.80;5.47;;;3.30;99.90;;;;;;4983840;28;20267;-80
2020/12/05 07:20:36;;;;;;;6.20;5.60;;;3.30;99.90;;;;;;4984333;28;20270;-80
2020/12/05 07:23:03;;;;;;;6.05;5.45;;;3.30;99.90;;;;;;4983269;28;20239;-80
2020/12/05 07:25:30;;;;;;;5.45;4.95;;;3.30;99.90;;;;;;4983832;28;20300;-80
2020/12/05 07:27:56;;;;;;;5.05;4.60;;;3.40;99.90;;;;;;4983826;28;20218;-80
2020/12/05 07:30:22;;;;;;;5.28;4.78;;;3.40;99.90;;;;;;4983643;28;20213;-81
2020/12/05 07:32:50;;;;;;;6.90;5.80;;;3.40;99.90;;;;;;4983370;28;20227;-81
2020/12/05 07:35:16;;;;;;;7.10;6.45;;;3.40;99.90;;;;;;4985002;28;20284;-80
2020/12/05 07:37:44;;;;;;;5.95;5.35;;;3.60;99.90;;;;;;4991313;28;20210;-82
2020/12/05 07:40:11;;;;;;;6.70;5.90;;;3.40;99.90;;;;;;4989463;28;20229;-80
2020/12/05 07:42:39;;;;;;;5.20;4.70;;;3.40;99.90;;;;;;4983338;28;20248;-80
2020/12/05 07:45:07;;;;;;;7.05;5.35;;;3.40;99.90;;;;;;4983260;28;20213;-81
2020/12/05 07:47:34;;;;;;;6.07;5.47;;;3.40;99.90;;;;;;4982963;28;20205;-80
2020/12/05 07:50:01;;;;;;;6.63;5.97;;;3.40;99.90;;;;;;4982901;28;20209;-80
2020/12/05 07:52:28;;;;;;;5.68;5.15;;;3.50;99.90;;;;;;4982774;28;20276;-80
2020/12/05 07:54:56;;;;;;;4.82;4.43;;;3.40;99.90;;;;;;4983111;28;20205;-80
2020/12/05 07:57:24;;;;;;;5.28;4.75;;;3.40;99.90;;;;;;4983203;28;20576;-81
2020/12/05 07:59:52;;;;;;;4.82;4.38;;;3.50;99.90;;;;;;4982889;28;20233;-81
2020/12/05 08:02:30;;;;;;;4.65;4.35;;;3.50;99.90;;;;;;4982974;28;20228;-81
2020/12/05 08:05:02;;;;;;;6.72;5.35;;;3.50;99.90;;;;;;4982064;28;20189;-81
2020/12/05 08:07:37;;;;;;;7.10;6.68;;;3.60;99.90;;;;;;4982969;28;20200;-80
2020/12/05 08:10:10;;;;;;;5.72;5.22;;;3.50;99.90;;;;;;4982809;28;20216;-81
2020/12/05 08:13:21;;;;;;;5.90;5.40;;;3.60;99.90;;;;;;4981798;28;20237;-80
2020/12/05 08:15:54;;;;;;;5.35;4.85;;;3.60;99.90;;;;;;4982605;28;20209;-81
2020/12/05 08:18:21;;;;;;;5.93;4.95;;;3.70;99.90;;;;;;4983210;28;20260;-81
2020/12/05 08:20:48;;;;;;;8.15;6.50;;;3.70;99.90;;;;;;4982388;28;20216;-81
2020/12/05 08:23:22;;;;;;;6.05;5.45;;;3.70;99.90;;;;;;4982275;28;20228;-81
2020/12/05 08:25:52;;;;;;;7.72;5.72;;;3.70;99.90;;;;;;4982851;28;20212;-81
2020/12/05 08:28:20;;;;;;;6.75;5.55;;;3.70;99.90;;;;;;4983236;28;20216;-81
2020/12/05 08:30:47;;;;;;;13.00;6.82;;;3.80;99.90;;;;;;4983192;28;20229;-81
2020/12/05 08:33:15;;;;;;;9.25;7.03;;;3.90;99.90;;;;;;4982901;28;20232;-81
2020/12/05 08:35:41;;;;;;;6.70;6.10;;;3.90;99.90;;;;;;4983569;28;20212;-81
2020/12/05 08:38:12;;;;;;;7.82;6.90;;;4.00;99.90;;;;;;4982221;28;20215;-81
2020/12/05 08:40:39;;;;;;;9.00;7.40;;;4.00;99.90;;;;;;4982617;28;20213;-81
2020/12/05 08:43:06;;;;;;;9.38;8.50;;;4.00;99.90;;;;;;4982465;28;20600;-81
2020/12/05 08:45:38;;;;;;;11.63;10.57;;;4.10;99.90;;;;;;4983347;28;20215;-81
2020/12/05 08:48:15;;;;;;;10.40;9.32;;;4.10;99.90;;;;;;4983122;28;20212;-81
2020/12/05 08:50:41;;;;;;;12.05;10.80;;;4.20;99.90;;;;;;4991219;28;20203;-81
2020/12/05 08:53:07;;;;;;;11.60;8.80;;;4.20;99.90;;;;;;4998281;28;20222;-81
2020/12/05 08:55:33;;;;;;;8.57;7.55;;;4.20;99.90;;;;;;4998513;28;20219;-81
2020/12/05 08:58:02;;;;;;;8.70;7.90;;;4.30;99.90;;;;;;4998306;28;20221;-81
2020/12/05 09:00:31;;;;;;;10.80;8.68;;;4.30;99.90;;;;;;4998411;28;20230;-81
2020/12/05 09:02:57;;;;;;;9.82;8.80;;;4.30;99.90;;;;;;4997766;28;20231;-81
2020/12/05 09:05:23;;;;;;;8.65;6.32;;;4.40;99.90;;;;;;4995875;28;20343;-81
2020/12/05 09:07:59;;;;;;;7.20;6.43;;;4.40;99.90;;;;;;4984898;28;20215;-81
2020/12/05 09:10:28;;;;;;;10.85;5.85;;;4.40;99.90;;;;;;4983994;28;20208;-81
2020/12/05 09:13:08;;;;;;;5.90;5.00;;;4.50;99.90;;;;;;4984408;28;20242;-81
2020/12/05 09:15:35;;;;;;;5.38;4.85;;;4.50;99.90;;;;;;4982412;28;20211;-81
2020/12/05 09:18:02;;;;;;;6.32;5.47;;;4.50;99.90;;;;;;4982795;28;20235;-81
2020/12/05 09:20:28;;;;;;;5.85;5.35;;;4.50;99.90;;;;;;4983913;28;20224;-82
2020/12/05 09:22:55;;;;;;;6.25;5.47;;;4.50;99.90;;;;;;4986407;28;20242;-81
2020/12/05 09:25:28;;;;;;;6.07;5.55;;;4.60;99.90;;;;;;4986288;28;20216;-81
2020/12/05 09:27:54;;;;;;;9.85;8.80;;;4.60;99.90;;;;;;4986371;28;20220;-82
2020/12/05 09:43:14;;;;;;;9.15;8.25;;;6.30;99.90;;;;;;4763889;29;20290;-82
2020/12/05 09:46:23;;;;;;;8.65;7.53;;;6.40;99.90;;;;;;4874278;29;20649;-81
2020/12/05 09:49:28;;;;;;;;;;;;;;;;;;;;;
2020/12/05 09:52:22;;;;;;;9.38;8.00;;;5.10;99.90;;;;;;4978757;28;20317;-81
2020/12/05 09:54:49;;;;;;;10.20;9.30;;;5.10;99.90;;;;;;4943834;28;20211;-82
2020/12/05 09:57:16;;;;;;;11.55;9.77;;;5.10;99.90;;;;;;4986398;28;20227;-81
2020/12/05 09:59:43;;;;;;;11.05;10.02;;;5.10;99.90;;;;;;4996962;28;20247;-82
2020/12/05 10:02:09;;;;;;;9.25;8.50;;;5.20;99.90;;;;;;4992228;28;20226;-82
2020/12/05 10:04:36;;;;;;;10.23;9.32;;;5.20;99.90;;;;;;4994336;28;20547;-82
2020/12/05 10:07:02;;;;;;;8.98;8.18;;;5.20;99.90;;;;;;4986553;28;20210;-82
2020/12/05 10:09:28;;;;;;;10.35;9.40;;;5.20;99.90;;;;;;4986637;28;20585;-82
2020/12/05 10:11:54;;;;;;;10.05;9.07;;;5.20;99.90;;;;;;4986227;28;20225;-82
2020/12/05 10:14:21;;;;;;;11.35;10.25;;;5.20;99.90;;;;;;4984240;28;20218;-82
2020/12/05 10:16:48;;;;;;;10.60;9.65;;;5.20;99.90;;;;;;4981177;28;20203;-82
2020/12/05 10:19:15;;;;;;;12.15;10.80;;;5.10;99.90;;;;;;4981716;28;20224;-81
2020/12/05 10:21:45;;;;;;;11.70;10.70;;;5.20;99.90;;;;;;4981037;28;20293;-82
2020/12/05 10:24:11;;;;;;;10.65;9.55;;;5.20;99.90;;;;;;4983335;28;20219;-82
2020/12/05 10:26:37;;;;;;;13.23;12.02;;;5.20;99.90;;;;;;4985284;28;20207;-82
2020/12/05 10:29:03;;;;;;;13.30;11.30;;;5.20;99.90;;;;;;4986086;28;20218;-82
2020/12/05 10:31:30;;;;;;;13.48;12.20;;;5.20;99.90;;;;;;4980707;28;20628;-82
2020/12/05 10:33:57;;;;;;;14.43;11.95;;;5.20;99.90;;;;;;4982837;28;20212;-82
2020/12/05 10:36:23;;;;;;;14.70;12.90;;;5.20;99.90;;;;;;4983559;28;20210;-82
2020/12/05 10:38:49;;;;;;;12.90;11.43;;;5.20;99.90;;;;;;4986815;28;20246;-82
2020/12/05 10:41:15;;;;;;;13.35;11.88;;;5.20;99.90;;;;;;4987463;28;20211;-82
2020/12/05 10:43:42;;;;;;;13.15;11.20;;;5.10;99.90;;;;;;4990213;28;20218;-83
2020/12/05 10:46:08;;;;;;;12.20;11.00;;;5.10;99.90;;;;;;4991415;28;20208;-83
2020/12/05 10:48:34;;;;;;;12.30;10.88;;;5.50;99.90;;;;;;4991605;28;20408;-83
2020/12/05 10:51:02;;;;;;;11.73;10.70;;;5.00;99.90;;;;;;4989656;28;20716;-82
2020/12/05 10:53:30;;;;;;;13.85;12.50;;;5.00;99.90;;;;;;4991071;28;20215;-83
2020/12/05 10:55:56;;;;;;;13.85;12.55;;;5.00;99.90;;;;;;4990499;28;20210;-81
2020/12/05 10:58:23;;;;;;;15.32;13.93;;;5.00;99.90;;;;;;4991126;28;20224;-81
2020/12/05 11:00:49;;;;;;;14.73;11.82;;;5.00;99.90;;;;;;4994937;28;20224;-82
2020/12/05 11:03:15;;;;;;;14.43;12.93;;;5.00;99.90;;;;;;4994378;28;20235;-82
2020/12/05 11:05:41;;;;;;;16.75;14.60;;;5.10;99.90;;;;;;4993120;28;20205;-84
2020/12/05 11:08:08;;;;;;;13.93;12.07;;;5.10;99.90;;;;;;4989046;28;20204;-83
2020/12/05 11:10:34;;;;;;;12.88;11.88;;;5.10;99.90;;;;;;4989826;28;20213;-83
2020/12/05 11:13:01;;;;;;;14.93;13.48;;;5.20;99.90;;;;;;4989338;28;20270;-84
2020/12/05 11:15:27;;;;;;;14.43;13.30;;;5.20;99.90;;;;;;4990326;28;20216;-83
2020/12/05 11:17:53;;;;;;;15.15;13.85;;;5.30;99.90;;;;;;4990583;28;20215;-84
2020/12/05 11:20:21;;;;;;;16.65;15.02;;;5.40;99.90;;;;;;4989076;28;20241;-84
2020/12/05 11:22:48;;;;;;;14.27;13.02;;;5.40;99.90;;;;;;4990979;28;20327;-83
2020/12/05 11:25:15;;;;;;;14.43;13.13;;;5.40;99.90;;;;;;4990919;28;20215;-83
2020/12/05 11:27:41;;;;;;;14.20;12.80;;;5.50;99.90;;;;;;4990461;28;20216;-83
2020/12/05 11:30:08;;;;;;;14.27;12.75;;;5.60;99.90;;;;;;4985009;28;20212;-82
2020/12/05 11:32:34;;;;;;;13.80;12.48;;;5.60;99.90;;;;;;4982665;28;20227;-82
2020/12/05 11:35:00;;;;;;;13.30;12.10;;;5.70;99.90;;;;;;4982726;28;20209;-82
2020/12/05 11:37:26;;;;;;;13.38;11.90;;;5.60;99.90;;;;;;4982920;28;20222;-83
2020/12/05 11:39:57;;;;;;;12.18;11.05;;;5.60;99.90;;;;;;4982476;28;20225;-83
2020/12/05 11:42:27;;;;;;;12.85;11.60;;;7.00;99.90;;;;;;4982213;28;20232;-83
2020/12/05 11:44:57;;;;;;;12.77;10.93;;;5.80;99.90;;;;;;4982998;28;20193;-83
2020/12/05 11:47:23;;;;;;;12.05;10.95;;;5.80;99.90;;;;;;4982838;28;20243;-82
2020/12/05 11:49:52;;;;;;;12.98;11.88;;;5.80;99.90;;;;;;4983439;28;20234;-83
2020/12/05 11:52:18;;;;;;;13.57;12.18;;;5.90;99.90;;;;;;4983525;28;20229;-83
2020/12/05 11:54:47;;;;;;;13.50;12.32;;;5.90;99.90;;;;;;4982145;28;20221;-83
2020/12/05 11:57:15;;;;;;;12.38;10.85;;;5.90;99.90;;;;;;4979743;28;20216;-83
2020/12/05 11:59:43;;;;;;;13.90;12.55;;;5.90;99.90;;;;;;4980102;28;20311;-84
2020/12/05 12:02:12;;;;;;;14.88;12.15;;;5.90;99.90;;;;;;4979081;28;20237;-83
2020/12/05 12:04:40;;;;;;;16.05;12.82;;;5.90;99.90;;;;;;4979770;28;20208;-83
2020/12/05 12:07:07;;;;;;;14.70;12.23;;;5.80;99.90;;;;;;4979579;28;20295;-84
2020/12/05 12:09:33;;;;;;;12.93;11.73;;;5.90;99.90;;;;;;4979824;28;20627;-84
2020/12/05 12:11:59;;;;;;;13.30;11.98;;;5.80;99.90;;;;;;4978868;28;20599;-83
2020/12/05 12:14:25;;;;;;;14.00;12.63;;;5.80;99.90;;;;;;4979522;28;20209;-83
2020/12/05 12:16:54;;;;;;;13.43;12.15;;;5.80;99.90;;;;;;4979705;28;20220;-84
2020/12/05 12:19:22;;;;;;;13.00;11.70;;;5.70;99.90;;;;;;4978517;28;20797;-83
2020/12/05 12:21:48;;;;;;;13.52;12.23;;;5.70;99.90;;;;;;4978717;28;20227;-84
2020/12/05 12:24:14;;;;;;;14.18;12.60;;;5.70;99.90;;;;;;4978700;28;20213;-84
2020/12/05 12:26:40;;;;;;;17.40;12.45;;;5.80;99.90;;;;;;4978613;28;20222;-83
2020/12/05 12:29:06;;;;;;;13.93;12.52;;;5.80;99.90;;;;;;4978935;28;20209;-83
2020/12/05 12:31:33;;;;;;;14.98;12.77;;;5.80;99.90;;;;;;4978399;28;20235;-84
2020/12/05 12:34:00;;;;;;;13.15;11.70;;;5.80;99.90;;;;;;4978972;28;20217;-83
2020/12/05 12:36:26;;;;;;;11.77;10.65;;;5.80;99.90;;;;;;4978660;28;20212;-84
2020/12/05 12:38:54;;;;;;;12.25;10.88;;;5.80;99.90;;;;;;4979265;28;20235;-83
2020/12/05 12:41:20;;;;;;;13.02;11.43;;;5.80;99.90;;;;;;4979923;28;20240;-83
2020/12/05 12:43:48;;;;;;;13.35;10.68;;;5.80;99.90;;;;;;4978718;28;20243;-83
2020/12/05 12:46:21;;;;;;;14.85;11.82;;;5.80;99.90;;;;;;4978311;28;20215;-83
2020/12/05 12:58:49;;;;;;;12.05;10.77;;;5.80;99.90;;;;;;4822334;29;20215;-83
2020/12/05 14:22:59;;;;;;;15.18;11.73;;;5.70;99.90;;;;;;4996504;28;20231;-85
2020/12/05 14:25:25;;;;;;;11.70;10.50;;;5.70;99.90;;;;;;4995257;28;20223;-84
2020/12/05 14:27:51;;;;;;;11.98;10.20;;;5.70;99.90;;;;;;4996157;28;20203;-85
2020/12/05 14:30:18;;;;;;;15.60;11.40;;;6.90;99.90;;;;;;4996280;28;20216;-86
2020/12/05 14:32:44;;;;;;;12.50;11.32;;;5.60;99.90;;;;;;5012368;28;20207;-84
2020/12/05 14:35:10;;;;;;;12.13;10.90;;;6.00;99.90;;;;;;5013666;28;20204;-85
2020/12/05 14:37:38;;;;;;;12.98;9.68;;;5.80;99.90;;;;;;5002574;28;20680;-85
2020/12/05 14:40:06;;;;;;;15.18;12.10;;;6.50;99.90;;;;;;5001686;28;20248;-86
2020/12/05 14:42:32;;;;;;;14.60;12.18;;;5.40;99.90;;;;;;4994957;28;20236;-85
2020/12/05 14:45:00;;;;;;;13.80;11.70;;;5.80;99.90;;;;;;4997475;28;20240;-86
2020/12/05 14:47:28;;;;;;;15.52;11.05;;;5.70;99.90;;;;;;4999411;28;20292;-85
2020/12/05 14:49:54;;;;;;;12.35;10.07;;;5.20;99.90;;;;;;4999722;28;20631;-86
2020/12/05 14:52:21;;;;;;;14.70;10.35;;;5.40;99.90;;;;;;4993726;28;20237;-85
2020/12/05 14:54:52;;;;;;;12.63;11.32;;;5.30;99.90;;;;;;4996127;28;20226;-86
2020/12/05 14:57:19;;;;;;;11.15;10.05;;;5.30;99.90;;;;;;4994888;28;20225;-86
2020/12/05 14:59:46;;;;;;;14.45;12.43;;;6.00;99.90;;;;;;4997093;28;20235;-84
2020/12/05 15:02:12;;;;;;;12.15;10.65;;;5.90;99.90;;;;;;4998863;28;20229;-83
2020/12/05 15:04:38;;;;;;;15.65;12.05;;;5.30;99.90;;;;;;4995506;28;20211;-83
2020/12/05 15:07:05;;;;;;;16.80;13.25;;;5.30;99.90;;;;;;4995853;28;20213;-83
2020/12/05 15:09:31;;;;;;;17.45;13.30;;;6.60;99.90;;;;;;4995886;28;20202;-83
2020/12/05 15:11:57;;;;;;;16.05;10.00;;;5.20;99.90;;;;;;4995128;28;20230;-82
2020/12/05 15:14:24;;;;;;;14.73;10.05;;;5.20;99.90;;;;;;4996012;28;20217;-82
2020/12/05 15:16:50;;;;;;;18.92;12.52;;;5.10;99.90;;;;;;4995404;28;20209;-83
2020/12/05 15:19:17;;;;;;;17.00;12.27;;;5.10;99.90;;;;;;4995440;28;20236;-82
2020/12/05 15:21:43;;;;;;;14.30;11.15;;;5.00;99.90;;;;;;4994850;28;20237;-83
2020/12/05 15:24:09;;;;;;;16.00;12.43;;;5.00;99.90;;;;;;4998092;28;20220;-83
2020/12/05 15:26:36;;;;;;;15.02;11.80;;;5.00;99.90;;;;;;4998197;28;20208;-83
2020/12/05 15:29:02;;;;;;;15.80;11.02;;;5.00;99.90;;;;;;4999347;28;20213;-82
2020/12/05 15:31:29;;;;;;;19.63;13.48;;;4.90;99.90;;;;;;4998934;28;20232;-82
2020/12/05 15:33:56;;;;;;;16.88;12.45;;;5.00;99.90;;;;;;4998062;28;20213;-82
2020/12/05 15:36:22;;;;;;;19.58;13.25;;;4.90;99.90;;;;;;4998269;28;20213;-83